createdAt,value
2022-12-13T00:02:11.437Z,10.02
2022-12-13T00:07:12.286Z,10.93
2022-12-13T00:12:13.101Z,9.52
2022-12-13T00:17:15.260Z,10.35
2022-12-13T00:22:16.833Z,9.93
2022-12-13T00:27:17.617Z,10.27
2022-12-13T00:32:19.860Z,9.68
2022-12-13T00:37:20.727Z,11.32
2022-12-13T00:42:21.677Z,9.50
2022-12-13T00:47:23.859Z,10.07
2022-12-13T00:52:24.704Z,9.30
2022-12-13T00:57:25.508Z,10.23
2022-12-13T01:02:27.863Z,10.43
2022-12-13T01:07:28.702Z,9.75
2022-12-13T01:12:29.547Z,9.98
2022-12-13T01:17:31.764Z,9.68
2022-12-13T01:22:32.551Z,9.30
2022-12-13T01:27:33.601Z,9.60
2022-12-13T01:32:36.105Z,9.85
2022-12-13T01:37:37.529Z,9.90
2022-12-13T01:42:39.130Z,8.75
2022-12-13T01:47:45.842Z,9.43
2022-12-13T01:52:47.652Z,10.63
2022-12-13T01:57:52.877Z,10.32
2022-12-13T02:02:58.640Z,9.60
2022-12-13T02:08:01.207Z,9.35
2022-12-13T02:13:02.149Z,10.40
2022-12-13T02:18:26.309Z,10.55
2022-12-13T02:23:55.335Z,9.93
2022-12-13T02:29:29.997Z,9.40
2022-12-13T02:34:37.870Z,9.82
2022-12-13T02:39:43.216Z,10.27
2022-12-13T02:44:52.187Z,9.80
2022-12-13T02:50:00.121Z,8.48
2022-12-13T02:55:01.030Z,9.40
2022-12-13T03:00:06.757Z,9.35
2022-12-13T03:05:39.104Z,10.25
2022-12-13T03:10:48.790Z,10.90
2022-12-13T03:15:56.836Z,11.15
2022-12-13T03:21:00.971Z,10.75
2022-12-13T03:26:05.940Z,9.65
2022-12-13T03:31:08.051Z,10.98
2022-12-13T03:36:11.503Z,11.63
2022-12-13T03:41:16.191Z,10.07
2022-12-13T03:46:17.373Z,9.88
2022-12-13T03:51:19.575Z,11.18
2022-12-13T03:56:20.366Z,11.45
2022-12-13T04:01:22.227Z,11.13
2022-12-13T04:06:28.584Z,11.27
2022-12-13T04:12:04.368Z,11.05
2022-12-13T04:17:05.480Z,11.75
2022-12-13T04:22:07.709Z,11.82
2022-12-13T04:27:08.626Z,11.43
2022-12-13T04:32:27.036Z,12.32
2022-12-13T04:37:29.662Z,12.90
2022-12-13T04:42:31.564Z,12.45
2022-12-13T04:47:32.393Z,12.93
2022-12-13T04:52:34.615Z,13.75
2022-12-13T04:57:35.584Z,12.80
2022-12-13T05:02:36.433Z,13.30
2022-12-13T05:07:42.297Z,12.38
2022-12-13T05:12:43.828Z,12.27
2022-12-13T05:17:44.634Z,13.45
2022-12-13T05:22:46.769Z,13.35
2022-12-13T05:27:47.679Z,12.20
2022-12-13T05:32:48.442Z,12.90
2022-12-13T05:37:53.492Z,13.63
2022-12-13T05:43:01.169Z,13.45
2022-12-13T05:48:02.626Z,13.85
2022-12-13T05:53:06.454Z,13.52
2022-12-13T05:58:13.419Z,14.15
2022-12-13T06:03:14.395Z,13.38
2022-12-13T06:08:24.803Z,13.73
2022-12-13T06:13:31.924Z,12.70
2022-12-13T06:18:34.628Z,13.43
2022-12-13T06:23:37.339Z,13.50
2022-12-13T06:28:38.220Z,13.98
2022-12-13T06:33:39.098Z,13.52
2022-12-13T06:38:43.066Z,13.30
2022-12-13T06:43:46.580Z,13.27
2022-12-13T06:48:47.451Z,13.80
2022-12-13T06:53:49.677Z,14.32
2022-12-13T06:58:50.505Z,13.65
2022-12-13T07:03:51.333Z,14.07
2022-12-13T07:08:55.845Z,14.57
2022-12-13T07:13:57.436Z,13.85
2022-12-13T07:19:01.085Z,15.80
2022-12-13T07:24:03.716Z,14.23
2022-12-13T07:29:11.337Z,14.30
2022-12-13T07:34:15.577Z,13.38
2022-12-13T07:39:18.104Z,13.63
2022-12-13T07:44:20.258Z,13.43
2022-12-13T07:49:21.395Z,11.80
2022-12-13T07:54:23.708Z,13.50
2022-12-13T07:59:28.299Z,14.48
2022-12-13T08:04:37.710Z,14.57
2022-12-13T08:09:41.801Z,13.50
2022-12-13T08:14:42.599Z,12.63
2022-12-13T08:19:43.657Z,12.05
2022-12-13T08:24:45.839Z,11.70
2022-12-13T08:29:46.672Z,10.93
2022-12-13T08:34:47.630Z,11.07
2022-12-13T08:39:49.771Z,11.13
2022-12-13T08:44:52.054Z,11.48
2022-12-13T08:49:54.976Z,11.48
2022-12-13T08:54:57.366Z,11.32
2022-12-13T08:59:58.236Z,10.57
2022-12-13T09:05:00.131Z,10.30
2022-12-13T09:10:25.288Z,12.90
2022-12-13T09:15:24.467Z,12.75
2022-12-13T09:20:29.421Z,11.85
2022-12-13T09:25:36.985Z,13.10
2022-12-13T09:30:39.636Z,13.73
2022-12-13T09:35:40.738Z,12.13
2022-12-13T09:40:46.722Z,12.70
2022-12-13T09:45:50.436Z,10.52
2022-12-13T09:51:15.909Z,10.63
2022-12-13T09:56:22.344Z,11.10
2022-12-13T10:01:24.113Z,9.88
2022-12-13T10:06:28.687Z,11.50
2022-12-13T10:11:32.210Z,9.43
2022-12-13T10:16:46.757Z,10.10
2022-12-13T10:21:48.698Z,10.00
2022-12-13T10:26:51.012Z,9.25
2022-12-13T10:31:53.618Z,9.43
2022-12-13T10:36:59.508Z,9.15
2022-12-13T10:42:06.174Z,9.77
2022-12-13T10:47:17.261Z,8.93
2022-12-13T10:52:30.545Z,10.25
2022-12-13T10:57:34.973Z,8.88
2022-12-13T11:02:41.604Z,8.80
2022-12-13T11:07:42.670Z,8.75
2022-12-13T11:12:44.939Z,8.57
2022-12-13T11:17:55.767Z,8.98
2022-12-13T11:23:02.925Z,9.05
2022-12-13T11:28:26.396Z,9.07
2022-12-13T11:33:48.575Z,8.98
2022-12-13T11:39:04.348Z,9.10
2022-12-13T11:44:13.767Z,8.70
2022-12-13T11:49:18.079Z,8.85
2022-12-13T11:54:28.125Z,8.98
2022-12-13T11:59:41.716Z,8.48
2022-12-13T12:04:47.956Z,8.45
2022-12-13T12:09:52.785Z,8.18
2022-12-13T12:15:05.263Z,7.95
2022-12-13T12:20:23.525Z,8.50
2022-12-13T12:25:32.276Z,9.00
2022-12-13T12:30:46.629Z,8.93
2022-12-13T12:35:59.426Z,8.57
2022-12-13T12:41:34.172Z,8.35
2022-12-13T12:47:09.271Z,6.30
2022-12-13T12:52:22.914Z,7.57
2022-12-13T12:57:39.392Z,7.95
2022-12-13T13:02:47.731Z,7.60
2022-12-13T13:07:54.742Z,6.88
2022-12-13T13:13:11.589Z,6.90
2022-12-13T13:18:49.766Z,7.07
2022-12-13T13:24:06.427Z,6.75
2022-12-13T13:29:38.837Z,6.93
2022-12-13T13:34:47.773Z,6.70
2022-12-13T13:40:00.574Z,6.20
2022-12-13T13:45:23.736Z,7.70
2022-12-13T13:51:08.652Z,6.95
2022-12-13T13:56:33.620Z,5.55
2022-12-13T14:02:10.894Z,6.15
2022-12-13T14:07:56.288Z,5.85
2022-12-13T14:13:33.698Z,5.55
2022-12-13T14:19:21.359Z,6.65
2022-12-13T14:24:30.898Z,6.18
2022-12-13T14:29:38.742Z,6.25
2022-12-13T14:34:40.464Z,8.98
2022-12-13T14:39:46.149Z,7.25
2022-12-13T14:44:48.633Z,7.00
2022-12-13T14:49:55.396Z,8.27
2022-12-13T14:54:58.748Z,7.82
2022-12-13T15:00:20.765Z,7.68
2022-12-13T15:05:28.857Z,7.75
2022-12-13T15:10:38.539Z,7.88
2022-12-13T15:15:40.858Z,8.50
2022-12-13T15:20:43.038Z,8.20
2022-12-13T15:25:53.777Z,8.40
2022-12-13T15:30:57.363Z,8.68
2022-12-13T15:36:13.258Z,10.10
2022-12-13T15:41:18.891Z,8.77
2022-12-13T15:46:27.150Z,8.75
2022-12-13T15:51:30.168Z,10.38
2022-12-13T15:56:34.081Z,10.57
2022-12-13T16:01:37.458Z,10.52
2022-12-13T16:06:38.478Z,10.82
2022-12-13T16:11:49.540Z,10.77
2022-12-13T16:16:52.125Z,10.98
2022-12-13T16:21:52.991Z,11.18
2022-12-13T16:26:53.746Z,12.10
2022-12-13T16:32:01.509Z,11.82
2022-12-13T16:37:26.465Z,12.50
2022-12-13T16:42:29.229Z,12.18
2022-12-13T16:47:43.160Z,13.45
2022-12-13T16:52:47.219Z,14.00
2022-12-13T16:57:59.025Z,14.25
2022-12-13T17:03:02.141Z,14.00
2022-12-13T17:08:03.769Z,13.93
2022-12-13T17:13:04.619Z,13.65
2022-12-13T17:18:07.083Z,14.50
2022-12-13T17:23:10.883Z,14.63
2022-12-13T17:28:15.590Z,15.52
2022-12-13T17:33:17.747Z,15.25
2022-12-13T17:38:18.560Z,15.85
2022-12-13T17:43:28.664Z,15.85
2022-12-13T17:48:40.755Z,15.75
2022-12-13T17:53:43.884Z,16.65
2022-12-13T17:58:45.345Z,16.20
2022-12-13T18:03:48.862Z,16.40
2022-12-13T18:08:49.959Z,16.10
2022-12-13T18:13:55.033Z,16.67
2022-12-13T18:18:58.514Z,16.25
2022-12-13T18:24:01.153Z,17.25
2022-12-13T18:29:02.702Z,15.38
2022-12-13T18:34:05.108Z,15.90
2022-12-13T18:39:06.413Z,15.60
2022-12-13T18:44:09.012Z,14.18
2022-12-13T18:49:12.194Z,16.58
2022-12-13T18:54:13.035Z,17.50
2022-12-13T18:59:19.812Z,17.67
2022-12-13T19:04:55.697Z,14.82
2022-12-13T19:09:56.688Z,15.68
2022-12-13T19:14:57.504Z,15.45
2022-12-13T19:20:00.011Z,16.35
2022-12-13T19:25:01.021Z,16.55
2022-12-13T19:30:01.952Z,17.00
2022-12-13T19:35:04.276Z,17.13
2022-12-13T19:40:05.697Z,16.70
2022-12-13T19:45:07.483Z,16.63
2022-12-13T19:50:11.132Z,17.17
2022-12-13T19:55:12.018Z,16.55
2022-12-13T20:00:14.345Z,17.67
2022-12-13T20:05:16.793Z,18.05
2022-12-13T20:10:17.924Z,18.27
2022-12-13T20:15:19.244Z,19.05
2022-12-13T20:20:23.793Z,17.67
2022-12-13T20:25:26.795Z,18.02
2022-12-13T20:30:29.734Z,18.52
2022-12-13T20:35:31.876Z,17.83
2022-12-13T20:40:34.831Z,19.52
2022-12-13T20:45:35.661Z,18.13
2022-12-13T20:50:37.809Z,18.95
2022-12-13T20:55:38.819Z,18.77
2022-12-13T21:00:39.804Z,18.83
2022-12-13T21:05:47.871Z,18.70
2022-12-13T21:10:48.702Z,17.73
2022-12-13T21:15:49.559Z,17.77
2022-12-13T21:20:57.315Z,18.13
2022-12-13T21:25:58.183Z,18.75
2022-12-13T21:31:00.076Z,18.55
2022-12-13T21:36:11.495Z,17.90
2022-12-13T21:41:13.448Z,19.27
2022-12-13T21:46:16.506Z,19.27
2022-12-13T21:51:21.307Z,18.85
2022-12-13T21:56:41.111Z,17.90
2022-12-13T22:02:03.623Z,18.40
2022-12-13T22:07:07.789Z,17.10
2022-12-13T22:12:09.956Z,19.33
2022-12-13T22:17:10.851Z,17.95
2022-12-13T22:22:13.094Z,19.15
2022-12-13T22:27:14.076Z,19.90
2022-12-13T22:32:14.907Z,19.55
2022-12-13T22:37:17.217Z,18.60
2022-12-13T22:42:18.042Z,19.55
2022-12-13T22:47:19.182Z,19.17
2022-12-13T22:52:21.350Z,18.52
2022-12-13T22:57:22.167Z,17.73
2022-12-13T23:02:23.068Z,18.20
2022-12-13T23:07:25.270Z,18.55
2022-12-13T23:12:52.109Z,19.88
2022-12-13T23:17:52.927Z,18.70
2022-12-13T23:22:55.064Z,18.15
2022-12-13T23:27:55.985Z,19.17
2022-12-13T23:32:56.866Z,19.25
2022-12-13T23:37:59.036Z,20.05
2022-12-13T23:42:59.875Z,19.13
2022-12-13T23:48:00.663Z,18.88
2022-12-13T23:53:03.259Z,19.33
2022-12-13T23:58:06.300Z,17.50
